메인 페이지
METAR-TAF:

METAR-TAF

공항 :

테구시갈파, 온두라스

위도: 14-03N, 경도: 087-13W, 고도: 994m

현재 날씨관측

예보는 24분 전, 22:00시(UTC)에 발표되었습니다.
북북서14kt
온도 19°C
습도 78%
기압 1020 hPa
시정: 8000m
고도 1200ft 상공 구름 조금
고도 2800ft 상공 구름 많음
시계 내 소나기

METAR: MHTG 202200Z 34014KT 8000 VCSH FEW012 BKN028 19/15 Q1020 A3012 NOSIG

시각: 16:24 (22:24 UTC)

예보

예보는 5 시간 44분 전, 16:40시(UTC)에 발표되었습니다.
예보 대상 시간: 20일 18시부터 21일 18시까지 (UTC)
12kt
시정: 8000m
고도 2800ft 상공 구름 보통
고도 8000ft 상공 구름 보통
시계 내 소나기
일시적
20일 20시부터 21일 01시까지 (UTC)
시정: 6000m
고도 2800ft 상공 구름 보통
고도 8000ft 상공 구름 많음
약한비
전환 중
21일 01시부터 21일 03시까지 (UTC)
시정: 8000m
시계 내 소나기
전환 중
21일 11시부터 21일 12시까지 (UTC)
고도 800ft 상공 구름 조금
고도 2600ft 상공 구름 많음

TAF: MHTG 201640Z 2018/2118 36012KT 8000 VCSH SCT028 SCT080 TX25/2020Z TN12/2112Z TEMPO 2020/2101 6000 -RA SCT028 BKN080 BECMG 2101/2103 8000 VCSH BECMG 2111/2112 FEW008 BKN026

4,000개 이상의 공항 관측 자료 및 예보 (METAR 및 TAF 보고).

지도상에서 검색 가능한 기상관측소가 노란 점과 빨간 점으로 표시되어 있습니다.

기상관측소 명을 보려면 표시 위로 마우스를 이동하세요.

날씨 관측과 예보를 보려면 클릭하세요.

지도 변경 : 확대하려면 엑스 표시가 있는 녹색 버튼, 축소하려면 빼기 표시가 있는 녹색 버튼, 다음 페이지의 지도를 보려면 녹색 화살표를 클릭하세요.


METAR-TAF: